SWQ3620 KSAT-KELP
Flight info
| Callsign | SWQ3620 |
|---|---|
| Flight time | N/A |
| Altitude | 32000 |
| Route | ALISS7 ALISS FST TXSAS BEAHR3 |
| Aircraft | B738/M-SDE2E3FGHIRWXY/LB1 |
Departure
| Time | N/A |
|---|---|
| Airport | San Antonio International Airport (KSAT) |
Arrival
| Time | 2026-05-03 20:57 |
|---|---|
| Airport | El Paso International Airport (KELP) |
| Time | Latitude | Longitude | Altitude | Speed | Heading |
|---|---|---|---|---|---|
| 2026-05-03 20:15 | 30.82149 | -102.33580 | 32059 ft | 379 kts | 281° |
| 2026-05-03 20:15 | 30.83378 | -102.39533 | 32053 ft | 378 kts | 281° |
| 2026-05-03 20:16 | 30.84596 | -102.45452 | 32057 ft | 377 kts | 281° |
| 2026-05-03 20:16 | 30.85813 | -102.51377 | 32061 ft | 376 kts | 280° |
| 2026-05-03 20:17 | 30.87026 | -102.57300 | 32060 ft | 376 kts | 280° |
| 2026-05-03 20:17 | 30.88237 | -102.63228 | 32057 ft | 376 kts | 280° |
| 2026-05-03 20:18 | 30.89444 | -102.69152 | 32060 ft | 376 kts | 280° |
| 2026-05-03 20:18 | 30.90649 | -102.75081 | 32047 ft | 376 kts | 280° |
| 2026-05-03 20:19 | 30.91846 | -102.80977 | 32054 ft | 376 kts | 280° |
| 2026-05-03 20:19 | 30.93047 | -102.86917 | 32053 ft | 376 kts | 280° |
| 2026-05-03 20:20 | 30.94245 | -102.92851 | 32048 ft | 376 kts | 280° |
| 2026-05-03 20:20 | 30.95291 | -102.97783 | 32047 ft | 377 kts | 283° |
| 2026-05-03 20:21 | 30.97212 | -103.03507 | 32050 ft | 379 kts | 287° |
| 2026-05-03 20:21 | 30.99210 | -103.09162 | 32057 ft | 379 kts | 287° |
| 2026-05-03 20:22 | 31.01204 | -103.14848 | 32059 ft | 378 kts | 287° |
| 2026-05-03 20:22 | 31.03181 | -103.20528 | 32058 ft | 378 kts | 287° |
| 2026-05-03 20:23 | 31.05149 | -103.26201 | 32060 ft | 377 kts | 287° |
| 2026-05-03 20:23 | 31.07100 | -103.31841 | 32068 ft | 376 kts | 287° |
| 2026-05-03 20:24 | 31.09058 | -103.37507 | 32071 ft | 376 kts | 287° |
| 2026-05-03 20:24 | 31.11014 | -103.43178 | 32069 ft | 376 kts | 287° |
| 2026-05-03 20:25 | 31.12964 | -103.48841 | 32075 ft | 375 kts | 287° |
| 2026-05-03 20:25 | 31.14897 | -103.54468 | 32077 ft | 375 kts | 286° |
| 2026-05-03 20:26 | 31.16836 | -103.60117 | 32077 ft | 374 kts | 286° |
| 2026-05-03 20:26 | 31.18772 | -103.65768 | 32079 ft | 374 kts | 286° |
| 2026-05-03 20:27 | 31.20697 | -103.71398 | 32077 ft | 374 kts | 286° |
| 2026-05-03 20:27 | 31.22622 | -103.77036 | 32086 ft | 373 kts | 286° |
| 2026-05-03 20:28 | 31.24531 | -103.82638 | 32086 ft | 373 kts | 286° |
| 2026-05-03 20:28 | 31.26452 | -103.88284 | 32086 ft | 373 kts | 286° |
| 2026-05-03 20:29 | 31.28359 | -103.93896 | 32087 ft | 372 kts | 286° |
| 2026-05-03 20:29 | 31.30268 | -103.99524 | 32087 ft | 372 kts | 286° |
| 2026-05-03 20:30 | 31.32167 | -104.05135 | 32093 ft | 371 kts | 285° |
| 2026-05-03 20:30 | 31.34057 | -104.10732 | 32086 ft | 371 kts | 285° |
| 2026-05-03 20:31 | 31.35953 | -104.16351 | 32089 ft | 372 kts | 285° |
| 2026-05-03 20:31 | 31.37850 | -104.21982 | 32088 ft | 371 kts | 285° |
| 2026-05-03 20:32 | 31.39747 | -104.27624 | 32090 ft | 371 kts | 285° |
| 2026-05-03 20:32 | 31.41619 | -104.33203 | 32097 ft | 370 kts | 285° |
| 2026-05-03 20:33 | 31.43503 | -104.38822 | 32096 ft | 369 kts | 285° |
| 2026-05-03 20:33 | 31.44428 | -104.41577 | 32088 ft | 357 kts | 285° |
| 2026-05-03 20:33 | 31.45237 | -104.44275 | 32097 ft | 345 kts | 278° |
| 2026-05-03 20:34 | 31.45838 | -104.49772 | 32097 ft | 340 kts | 272° |
| 2026-05-03 20:34 | 31.46107 | -104.52546 | 31772 ft | 341 kts | 273° |
| 2026-05-03 20:34 | 31.46385 | -104.55292 | 31329 ft | 338 kts | 273° |
| 2026-05-03 20:34 | 31.46669 | -104.58010 | 30941 ft | 334 kts | 273° |
| 2026-05-03 20:35 | 31.46952 | -104.60694 | 30534 ft | 330 kts | 273° |
| 2026-05-03 20:35 | 31.47231 | -104.63347 | 30142 ft | 327 kts | 273° |
| 2026-05-03 20:35 | 31.47508 | -104.65986 | 29741 ft | 324 kts | 273° |
| 2026-05-03 20:35 | 31.47778 | -104.68569 | 29328 ft | 321 kts | 272° |
| 2026-05-03 20:36 | 31.48047 | -104.71165 | 28917 ft | 319 kts | 272° |
| 2026-05-03 20:36 | 31.48313 | -104.73728 | 28508 ft | 316 kts | 272° |
| 2026-05-03 20:36 | 31.48577 | -104.76284 | 28102 ft | 314 kts | 273° |
| 2026-05-03 20:36 | 31.48838 | -104.78815 | 27700 ft | 311 kts | 272° |
| 2026-05-03 20:37 | 31.49097 | -104.81325 | 27305 ft | 309 kts | 272° |
| 2026-05-03 20:37 | 31.49354 | -104.83820 | 26908 ft | 307 kts | 272° |
| 2026-05-03 20:37 | 31.49605 | -104.86267 | 26519 ft | 305 kts | 272° |
| 2026-05-03 20:37 | 31.49857 | -104.88722 | 26136 ft | 303 kts | 272° |
| 2026-05-03 20:38 | 31.50107 | -104.91170 | 25752 ft | 301 kts | 272° |
| 2026-05-03 20:38 | 31.50355 | -104.93597 | 25357 ft | 299 kts | 272° |
| 2026-05-03 20:38 | 31.50601 | -104.96019 | 24987 ft | 299 kts | 272° |
| 2026-05-03 20:38 | 31.50848 | -104.98447 | 24622 ft | 298 kts | 272° |
| 2026-05-03 20:39 | 31.51094 | -105.00878 | 24218 ft | 302 kts | 272° |
| 2026-05-03 20:39 | 31.51340 | -105.03337 | 23850 ft | 313 kts | 273° |
| 2026-05-03 20:39 | 31.51596 | -105.05886 | 23451 ft | 316 kts | 273° |
| 2026-05-03 20:39 | 31.51854 | -105.08441 | 23045 ft | 314 kts | 273° |
| 2026-05-03 20:40 | 31.52111 | -105.10974 | 22654 ft | 311 kts | 273° |
| 2026-05-03 20:40 | 31.52361 | -105.13481 | 22262 ft | 308 kts | 273° |
| 2026-05-03 20:40 | 31.52614 | -105.15971 | 21882 ft | 306 kts | 273° |
| 2026-05-03 20:40 | 31.52865 | -105.18451 | 21509 ft | 304 kts | 272° |
| 2026-05-03 20:41 | 31.53098 | -105.20867 | 21137 ft | 301 kts | 272° |
| 2026-05-03 20:41 | 31.53340 | -105.23292 | 20752 ft | 297 kts | 272° |
| 2026-05-03 20:41 | 31.53582 | -105.25687 | 20376 ft | 295 kts | 272° |
| 2026-05-03 20:41 | 31.53820 | -105.28063 | 20026 ft | 292 kts | 272° |
| 2026-05-03 20:42 | 31.54055 | -105.30429 | 19667 ft | 290 kts | 272° |
| 2026-05-03 20:42 | 31.54287 | -105.32773 | 19308 ft | 289 kts | 272° |
| 2026-05-03 20:42 | 31.54518 | -105.35107 | 18949 ft | 287 kts | 272° |
| 2026-05-03 20:42 | 31.54744 | -105.37399 | 18574 ft | 286 kts | 272° |
| 2026-05-03 20:43 | 31.54973 | -105.39739 | 18147 ft | 286 kts | 272° |
| 2026-05-03 20:43 | 31.55200 | -105.42053 | 17772 ft | 285 kts | 272° |
| 2026-05-03 20:43 | 31.55425 | -105.44341 | 17413 ft | 284 kts | 273° |
| 2026-05-03 20:43 | 31.55652 | -105.46649 | 17044 ft | 283 kts | 273° |
| 2026-05-03 20:44 | 31.55879 | -105.48947 | 16694 ft | 283 kts | 273° |
| 2026-05-03 20:44 | 31.56097 | -105.51226 | 16341 ft | 282 kts | 273° |
| 2026-05-03 20:44 | 31.56310 | -105.53520 | 15989 ft | 280 kts | 274° |
| 2026-05-03 20:44 | 31.56544 | -105.55748 | 15642 ft | 277 kts | 274° |
| 2026-05-03 20:45 | 31.56761 | -105.57993 | 15283 ft | 275 kts | 274° |
| 2026-05-03 20:45 | 31.56984 | -105.60234 | 14937 ft | 274 kts | 275° |
| 2026-05-03 20:45 | 31.57213 | -105.62431 | 14584 ft | 275 kts | 274° |
| 2026-05-03 20:45 | 31.57425 | -105.64667 | 14229 ft | 274 kts | 274° |
| 2026-05-03 20:46 | 31.57627 | -105.66892 | 13846 ft | 274 kts | 274° |
| 2026-05-03 20:46 | 31.57831 | -105.69113 | 13506 ft | 274 kts | 274° |
| 2026-05-03 20:46 | 31.58039 | -105.71328 | 13168 ft | 273 kts | 274° |
| 2026-05-03 20:46 | 31.58250 | -105.73533 | 12840 ft | 271 kts | 274° |
| 2026-05-03 20:47 | 31.58457 | -105.75703 | 12515 ft | 271 kts | 275° |
| 2026-05-03 20:47 | 31.58668 | -105.77925 | 12197 ft | 276 kts | 275° |
| 2026-05-03 20:47 | 31.59036 | -105.80162 | 11864 ft | 284 kts | 290° |
| 2026-05-03 20:47 | 31.59965 | -105.82250 | 11607 ft | 292 kts | 297° |
| 2026-05-03 20:48 | 31.60997 | -105.84292 | 11309 ft | 295 kts | 298° |
| 2026-05-03 20:48 | 31.62061 | -105.86372 | 11006 ft | 297 kts | 298° |
| 2026-05-03 20:48 | 31.63126 | -105.88465 | 10707 ft | 298 kts | 298° |
| 2026-05-03 20:48 | 31.64167 | -105.90524 | 10393 ft | 291 kts | 298° |
| 2026-05-03 20:49 | 31.65183 | -105.92543 | 10104 ft | 283 kts | 298° |
| 2026-05-03 20:49 | 31.66173 | -105.94521 | 9918 ft | 276 kts | 298° |
| 2026-05-03 20:49 | 31.67146 | -105.96465 | 9580 ft | 276 kts | 298° |
| 2026-05-03 20:49 | 31.68098 | -105.98373 | 9321 ft | 273 kts | 298° |
| 2026-05-03 20:50 | 31.69059 | -106.00301 | 9043 ft | 272 kts | 298° |
| 2026-05-03 20:50 | 31.70010 | -106.02210 | 8804 ft | 267 kts | 298° |
| 2026-05-03 20:50 | 31.70945 | -106.04082 | 8547 ft | 264 kts | 298° |
| 2026-05-03 20:50 | 31.71842 | -106.05880 | 8509 ft | 252 kts | 298° |
| 2026-05-03 20:51 | 31.72713 | -106.07625 | 8212 ft | 247 kts | 298° |
| 2026-05-03 20:51 | 31.73716 | -106.09258 | 7906 ft | 245 kts | 311° |
| 2026-05-03 20:51 | 31.74932 | -106.10647 | 7677 ft | 239 kts | 315° |
| 2026-05-03 20:51 | 31.76131 | -106.11930 | 7500 ft | 233 kts | 315° |
| 2026-05-03 20:52 | 31.77316 | -106.13201 | 7343 ft | 230 kts | 315° |
| 2026-05-03 20:52 | 31.78489 | -106.14470 | 7201 ft | 229 kts | 315° |
| 2026-05-03 20:52 | 31.79670 | -106.15760 | 7058 ft | 233 kts | 314° |
| 2026-05-03 20:52 | 31.80863 | -106.17071 | 6920 ft | 233 kts | 314° |
| 2026-05-03 20:53 | 31.82014 | -106.18337 | 6783 ft | 224 kts | 314° |
| 2026-05-03 20:53 | 31.83125 | -106.19562 | 6623 ft | 213 kts | 314° |
| 2026-05-03 20:53 | 31.84178 | -106.20728 | 6457 ft | 203 kts | 314° |
| 2026-05-03 20:53 | 31.85206 | -106.21869 | 6328 ft | 202 kts | 314° |
| 2026-05-03 20:54 | 31.86226 | -106.23002 | 6198 ft | 201 kts | 314° |
| 2026-05-03 20:54 | 31.88222 | -106.25312 | 5917 ft | 200 kts | 299° |
| 2026-05-03 20:54 | 31.88469 | -106.26835 | 5765 ft | 196 kts | 254° |
| 2026-05-03 20:55 | 31.87996 | -106.28363 | 5612 ft | 203 kts | 248° |
| 2026-05-03 20:55 | 31.87362 | -106.29798 | 5365 ft | 207 kts | 233° |
| 2026-05-03 20:55 | 31.86464 | -106.31165 | 5149 ft | 200 kts | 230° |
| 2026-05-03 20:55 | 31.85589 | -106.32384 | 4973 ft | 188 kts | 230° |
| 2026-05-03 20:56 | 31.84781 | -106.33513 | 4778 ft | 173 kts | 230° |
| 2026-05-03 20:56 | 31.84030 | -106.34566 | 4535 ft | 158 kts | 230° |
| 2026-05-03 20:56 | 31.83344 | -106.35527 | 4328 ft | 156 kts | 230° |
| 2026-05-03 20:56 | 31.82659 | -106.36493 | 4148 ft | 152 kts | 231° |
| 2026-05-03 20:57 | 31.81984 | -106.37435 | 3954 ft | 144 kts | 231° |
| 2026-05-03 20:57 | 31.81407 | -106.38241 | 3944 ft | 111 kts | 230° |
| 2026-05-03 20:57 | 31.80990 | -106.38821 | 3942 ft | 60 kts | 230° |
| 2026-05-03 20:57 | 31.80787 | -106.39060 | 3936 ft | 36 kts | 208° |
| 2026-05-03 20:58 | 31.80598 | -106.39145 | 3934 ft | 26 kts | 201° |
| 2026-05-03 20:58 | 31.80442 | -106.39217 | 3931 ft | 20 kts | 201° |
| 2026-05-03 20:58 | 31.80358 | -106.39245 | 3932 ft | 0 kts | 173° |
| 2026-05-03 20:58 | 31.80357 | -106.39245 | 3932 ft | 1 kts | 173° |
| 2026-05-03 20:59 | 31.80337 | -106.39217 | 3932 ft | 5 kts | 92° |
| 2026-05-03 20:59 | 31.80364 | -106.39179 | 3931 ft | 9 kts | 41° |
| 2026-05-03 20:59 | 31.80431 | -106.39108 | 3931 ft | 16 kts | 44° |
| 2026-05-03 20:59 | 31.80518 | -106.39010 | 3932 ft | 18 kts | 44° |
| 2026-05-03 21:00 | 31.80606 | -106.38913 | 3932 ft | 17 kts | 41° |
| 2026-05-03 21:00 | 31.80635 | -106.38882 | 3932 ft | 17 kts | 42° |
| 2026-05-03 21:00 | 31.80775 | -106.38729 | 3938 ft | 18 kts | 43° |
| 2026-05-03 21:00 | 31.80866 | -106.38618 | 3940 ft | 20 kts | 52° |
| 2026-05-03 21:01 | 31.80950 | -106.38496 | 3943 ft | 19 kts | 50° |
| 2026-05-03 21:01 | 31.81034 | -106.38379 | 3942 ft | 18 kts | 50° |
| 2026-05-03 21:01 | 31.81114 | -106.38265 | 3943 ft | 18 kts | 50° |
| 2026-05-03 21:01 | 31.81192 | -106.38156 | 3942 ft | 17 kts | 50° |
| 2026-05-03 21:02 | 31.81267 | -106.38050 | 3942 ft | 16 kts | 50° |
| 2026-05-03 21:02 | 31.81339 | -106.37948 | 3944 ft | 16 kts | 50° |
| 2026-05-03 21:02 | 31.81409 | -106.37851 | 3945 ft | 15 kts | 50° |
| 2026-05-03 21:02 | 31.81475 | -106.37758 | 3948 ft | 15 kts | 50° |
| 2026-05-03 21:03 | 31.81540 | -106.37671 | 3951 ft | 14 kts | 48° |
| 2026-05-03 21:03 | 31.81603 | -106.37588 | 3951 ft | 13 kts | 48° |
| 2026-05-03 21:03 | 31.81663 | -106.37507 | 3953 ft | 13 kts | 51° |
| 2026-05-03 21:03 | 31.81720 | -106.37428 | 3954 ft | 13 kts | 50° |
| 2026-05-03 21:04 | 31.81726 | -106.37338 | 3952 ft | 12 kts | 134° |
| 2026-05-03 21:04 | 31.81663 | -106.37270 | 3951 ft | 12 kts | 128° |
| 2026-05-03 21:04 | 31.81671 | -106.37184 | 3951 ft | 12 kts | 48° |
| 2026-05-03 21:04 | 31.81707 | -106.37136 | 3951 ft | 12 kts | 49° |
| 2026-05-03 21:05 | 31.81764 | -106.37033 | 3952 ft | 11 kts | 76° |
| 2026-05-03 21:05 | 31.81778 | -106.36973 | 3953 ft | 11 kts | 73° |
| 2026-05-03 21:05 | 31.81806 | -106.36860 | 3953 ft | 11 kts | 74° |
| 2026-05-03 21:05 | 31.81819 | -106.36806 | 3953 ft | 10 kts | 74° |
| 2026-05-03 21:06 | 31.81851 | -106.36732 | 3955 ft | 10 kts | 50° |
| 2026-05-03 21:06 | 31.81910 | -106.36709 | 3956 ft | 7 kts | 346° |
| 2026-05-03 21:06 | 31.81922 | -106.36717 | 3956 ft | 0 kts | 322° |
| 2026-05-03 21:06 | 31.81931 | -106.36728 | 3956 ft | 3 kts | 316° |
| 2026-05-03 21:07 | 31.81946 | -106.36743 | 3955 ft | 3 kts | 320° |
| 2026-05-03 21:07 | 31.81951 | -106.36748 | 3955 ft | 0 kts | 321° |